Low Moor, VA (24457)

11:57 PM EST on December 17, 2014 (GMT -0500)
Alleghany Street | Change Station
CLOSE
Current Station
Personal Weather Station
Location: Clifton Forge, VA
Elevation: 1175 ft
Nearby Weather Stations

Elev 1175 ft 37.81 °N, 79.84 °W | Updated 1 minute ago

Partly Cloudy
Partly Cloudy
35.6 °F
Feels Like 30 °F
N
6.3
Wind Variable Wind from SW

Today
High -- | Low -- °F
--% Chance of Precip.
Yesterday
High -- | Low -- °F
Precip. -- in
7:29 AM 5:02 PM
Waning Crescent, 17% visible
Pressure 30.10 in
Visibility 10.0 miles
Clouds Scattered Clouds 2200 ft
Windchill 30 °F
Dew Point 25 °F
Humidity 66%
Rainfall 0.00 in
Snow Depth Not available.
UV 0 out of 12
Pollen .10 out of 12
Air Quality Not available.
Flu Activity Not available.
METAR KLWB 180435Z AUTO 26008KT 10SM SCT022 00/M04 A3010 RMK AO2 T00001045

More Conditions Fewer Conditions

Pressure 30.10 in
Visibility 10.0 miles
Clouds Scattered Clouds 2200 ft
Windchill 30 °F
Dew Point 25 °F
Humidity 66%
Rainfall 0.00 in
Snow Depth Not available.
UV 0 out of 12
Pollen .10 out of 12
Air Quality Not available.
Flu Activity Not available.
METAR KLWB 180435Z AUTO 26008KT 10SM SCT022 00/M04 A3010 RMK AO2 T00001045

More Conditions Fewer Conditions

10-Day Weather Forecast

Almanac

Astronomy

Dec. 17, 2014 Rise Set
Actual Time
Civil Twilight
Nautical Twilight
Astronomical Twilight
Moon
Length of Visible Light
Length of Day
Tomorrow will be .
, % of the Moon is Illuminated

Today's Extremes

State Highs State Lows

Community

WunderPhotos

Upload Photos

1,778,883 photos uploaded!

WunderBlogs® & News

Nearby

Air Quality

  Air Quality AQ Index Pollutant
Not available.

Snow Depth

Station Depth Elevation

Earthquake Activity

City Distance Mag. Time & Date
Minimum magnitude displayed is 2.5.

Coastal Water Temperatures

Place Temperature

Nearby Weather Stations